Time;durP1;ratioP1;P1;durP2;ratioP2;P2;SDS_P1;SDS_P2;PMS_P1;PMS_P2;Temp;Humidity;BMP_temperature;BMP_pressure;BME280_temperature;BME280_humidity;BME280_pressure;Samples;Min_cycle;Max_cycle;Signal;HPM_P1;HPM_P2
2021/04/08 00:00:19;;;;;;;8.27;2.43;;;;;;;-144.99;91.01;52415.47;5028337;28;20656;-75
2021/04/08 00:02:46;;;;;;;11.53;2.40;;;;;;;-144.99;90.93;52333.94;5028393;28;20214;-75
2021/04/08 00:05:14;;;;;;;8.93;2.73;;;;;;;-144.99;90.86;52382.88;5028868;28;20616;-79
2021/04/08 00:07:40;;;;;;;11.83;3.10;;;;;;;-144.99;90.82;52378.78;5031415;28;20962;-74
2021/04/08 00:10:07;;;;;;;11.90;2.27;;;;;;;-144.99;90.70;52370.63;5031893;28;20667;-76
2021/04/08 00:12:34;;;;;;;19.30;3.47;;;;;;;-144.99;90.68;52391.03;5032164;28;20631;-76
2021/04/08 00:15:00;;;;;;;19.57;2.73;;;;;;;-144.99;90.64;52372.69;5032349;28;20667;-75
2021/04/08 00:17:26;;;;;;;12.83;2.60;;;;;;;-144.99;89.98;52362.50;5031903;28;21243;-76
2021/04/08 00:19:52;;;;;;;13.53;3.27;;;;;;;-144.99;89.27;52413.44;5032408;28;20699;-76
2021/04/08 00:22:18;;;;;;;14.67;4.07;;;;;;;-144.99;87.92;52382.88;5032129;28;20668;-77
2021/04/08 00:24:44;;;;;;;12.27;3.27;;;;;;;-144.99;86.32;52444.03;5030227;28;20198;-79
2021/04/08 00:27:10;;;;;;;12.30;2.97;;;;;;;-144.99;86.26;52382.88;5031364;28;20622;-77
2021/04/08 00:29:37;;;;;;;10.80;2.53;;;;;;;-144.99;84.79;52403.25;5032095;28;20695;-78
2021/04/08 00:32:03;;;;;;;10.07;3.20;;;;;;;-144.99;84.15;52386.94;5031282;28;20628;-76
2021/04/08 00:34:29;;;;;;;14.60;2.80;;;;;;;-144.99;83.85;52427.72;5030764;28;20624;-76
2021/04/08 00:36:55;;;;;;;6.30;2.03;;;;;;;-144.99;83.75;52382.88;5031049;28;21229;-75
2021/04/08 00:39:21;;;;;;;8.60;2.57;;;;;;;-144.99;83.65;52378.78;5031363;28;20265;-76
2021/04/08 00:41:48;;;;;;;16.80;4.60;;;;;;;-144.99;83.84;52419.56;5032087;28;20194;-76
2021/04/08 00:44:14;;;;;;;7.33;1.67;;;;;;;-144.99;83.87;52403.25;5031520;28;20202;-78
2021/04/08 00:46:41;;;;;;;12.90;2.80;;;;;;;-144.99;84.20;52370.63;5030527;28;20673;-74
2021/04/08 00:49:06;;;;;;;10.10;3.47;;;;;;;-144.99;84.58;52407.31;5031850;28;20648;-76
2021/04/08 00:51:33;;;;;;;16.13;5.73;;;;;;;-144.99;85.07;52407.31;5028086;28;20719;-76
2021/04/08 00:53:59;;;;;;;11.57;2.50;;;;;;;-144.99;85.44;52407.31;5030706;28;20213;-76
2021/04/08 00:56:25;;;;;;;14.57;2.23;;;;;;;-144.99;85.71;52386.94;5032653;28;20667;-75
2021/04/08 00:58:51;;;;;;;9.97;2.47;;;;;;;-144.99;85.95;52407.31;5053662;22;20688;-70
2021/04/08 01:01:18;;;;;;;8.00;3.47;;;;;;;-144.99;86.17;52425.66;5008846;28;20614;-74
2021/04/08 01:03:45;;;;;;;10.23;2.30;;;;;;;-144.99;86.22;52395.09;5014451;28;20629;-72
2021/04/08 01:06:11;;;;;;;17.33;4.30;;;;;;;-144.99;86.34;52415.47;5005205;28;20622;-71
2021/04/08 01:08:37;;;;;;;12.67;2.43;;;;;;;-144.99;86.49;52435.88;5012931;28;20740;-70
2021/04/08 01:11:03;;;;;;;10.03;2.90;;;;;;;-144.99;86.35;52368.59;5013223;28;20213;-71
2021/04/08 01:13:32;;;;;;;13.30;5.33;;;;;;;-144.99;86.54;52393.06;5016046;28;20618;-72
2021/04/08 01:16:04;;;;;;;10.57;1.70;;;;;;;-144.99;86.49;52419.56;5012738;28;21215;-73
2021/04/08 01:18:39;;;;;;;12.10;2.33;;;;;;;-144.99;86.62;52395.09;5011093;28;20725;-72
2021/04/08 01:21:16;;;;;;;11.20;1.77;;;;;;;-144.99;86.66;52370.63;5000879;28;20622;-72
2021/04/08 01:24:15;;;;;;;13.40;2.10;;;;;;;-144.99;86.63;52403.25;5003799;28;20633;-73
2021/04/08 01:27:20;;;;;;;13.47;2.63;;;;;;;-144.99;86.65;52378.78;5008422;28;20644;-72
2021/04/08 01:30:31;;;;;;;13.80;4.23;;;;;;;-144.99;87.67;52391.03;5007068;28;20653;-71
2021/04/08 01:33:03;;;;;;;8.60;2.83;;;;;;;-144.99;87.48;52366.56;4975099;28;20646;-71
2021/04/08 01:35:33;;;;;;;9.73;1.43;;;;;;;-144.99;87.39;52399.19;5010825;28;21238;-71
2021/04/08 01:38:06;;;;;;;8.63;1.50;;;;;;;-144.99;86.44;52346.19;5007193;28;20687;-70
2021/04/08 01:40:34;;;;;;;3.93;1.00;;;;;;;-144.99;85.70;52358.41;5010657;28;20617;-71
2021/04/08 01:43:01;;;;;;;6.50;2.87;;;;;;;-144.99;85.42;52372.69;5011214;28;20646;-71
2021/04/08 01:45:29;;;;;;;4.90;1.33;;;;;;;-144.99;85.61;52378.78;5010647;28;20632;-72
2021/04/08 01:47:56;;;;;;;7.73;1.87;;;;;;;-144.99;86.02;52378.78;5009516;28;20634;-72
2021/04/08 01:50:24;;;;;;;2.87;1.53;;;;;;;-144.99;86.52;52439.94;5010345;28;20638;-72
2021/04/08 01:52:52;;;;;;;4.47;1.10;;;;;;;-144.99;87.36;52405.28;5008514;28;20749;-72
2021/04/08 01:55:19;;;;;;;10.83;2.17;;;;;;;-144.99;87.69;52407.31;4997388;28;20654;-72
2021/04/08 01:57:47;;;;;;;5.17;1.30;;;;;;;-144.99;87.91;52376.75;5008800;28;20630;-72
2021/04/08 02:00:18;;;;;;;14.33;2.77;;;;;;;-144.99;88.50;52403.25;5014633;28;20662;-72
2021/04/08 02:02:47;;;;;;;14.60;4.70;;;;;;;-144.99;88.84;52439.94;5014428;28;21181;-72
2021/04/08 02:05:15;;;;;;;12.27;2.10;;;;;;;-144.99;89.87;52350.25;5012646;28;20609;-73
2021/04/08 02:07:43;;;;;;;9.73;1.97;;;;;;;-144.99;90.44;52374.72;5009917;28;20652;-72
2021/04/08 02:10:12;;;;;;;16.67;3.37;;;;;;;-144.99;91.72;52395.09;5010486;28;21131;-71
2021/04/08 02:12:40;;;;;;;8.40;2.33;;;;;;;-144.99;92.71;52376.75;5010461;28;20639;-72
2021/04/08 02:15:09;;;;;;;11.10;2.47;;;;;;;-144.99;92.96;52423.63;5010016;28;20629;-72
2021/04/08 02:17:37;;;;;;;12.30;2.93;;;;;;;-144.99;92.96;52403.25;5008587;28;20646;-72
2021/04/08 02:20:08;;;;;;;8.80;3.70;;;;;;;-144.99;93.17;52378.78;5010072;28;20629;-72
2021/04/08 02:22:35;;;;;;;12.83;3.67;;;;;;;-144.99;92.61;52378.78;5003923;28;20623;-71
2021/04/08 02:25:05;;;;;;;12.77;3.63;;;;;;;-144.99;92.37;52382.88;5009743;28;20638;-71
2021/04/08 02:27:32;;;;;;;11.53;3.17;;;;;;;-144.99;92.03;52362.50;5008419;28;21041;-70
2021/04/08 02:29:58;;;;;;;510.02;213.50;;;;;;;-144.99;91.71;52413.44;5008689;28;20677;-70
2021/04/08 02:32:24;;;;;;;149.97;50.43;;;;;;;-144.99;91.33;52399.19;5010199;28;20199;-70
2021/04/08 02:34:50;;;;;;;10.97;2.30;;;;;;;-144.99;91.44;52382.88;5010376;28;20979;-72
2021/04/08 02:37:16;;;;;;;8.97;1.93;;;;;;;-144.99;91.28;52425.66;5009561;28;20657;-71
2021/04/08 02:39:42;;;;;;;88.70;50.13;;;;;;;-144.99;90.83;52378.78;5006165;28;20666;-72
2021/04/08 02:42:10;;;;;;;11.50;6.67;;;;;;;-144.99;90.41;52360.44;5004226;28;20254;-71
2021/04/08 02:44:35;;;;;;;116.27;58.20;;;;;;;-144.99;90.32;52403.25;5009782;28;20450;-71
2021/04/08 02:47:02;;;;;;;243.87;80.00;;;;;;;-144.99;89.84;52386.94;5008844;28;20995;-71
2021/04/08 02:49:28;;;;;;;7.50;1.97;;;;;;;-144.99;89.65;52386.94;5010405;28;20249;-72
2021/04/08 02:51:56;;;;;;;9.20;1.67;;;;;;;-144.99;89.52;52462.34;5008920;28;20618;-72
2021/04/08 02:54:28;;;;;;;7.60;1.63;;;;;;;-144.99;89.26;52421.59;4999192;28;20214;-72
2021/04/08 02:56:58;;;;;;;3.53;1.20;;;;;;;-144.99;89.25;52382.88;5003176;28;20668;-73
2021/04/08 02:59:27;;;;;;;7.20;1.53;;;;;;;-144.99;89.12;52427.72;5009340;28;20665;-73
2021/04/08 03:01:58;;;;;;;8.43;1.90;;;;;;;-144.99;89.07;52372.69;5009783;28;20629;-73
2021/04/08 03:04:25;;;;;;;9.33;1.23;;;;;;;-144.99;89.30;52405.28;5010650;28;21028;-73
2021/04/08 03:06:52;;;;;;;7.10;1.90;;;;;;;-144.99;89.26;52386.94;5007817;28;20658;-73
2021/04/08 03:09:26;;;;;;;7.10;2.20;;;;;;;-144.99;89.47;52395.09;5006293;28;20653;-73
2021/04/08 03:11:53;;;;;;;5.37;1.93;;;;;;;-144.99;90.00;52429.75;5009636;28;20617;-72
2021/04/08 03:14:21;;;;;;;6.37;2.47;;;;;;;-144.99;90.16;52354.34;5011854;28;20653;-73
2021/04/08 03:16:50;;;;;;;7.07;1.27;;;;;;;-144.99;90.27;52399.19;5007700;28;20733;-73
2021/04/08 03:19:22;;;;;;;8.40;1.80;;;;;;;-144.99;90.29;52378.78;5002237;28;21145;-72
2021/04/08 03:21:49;;;;;;;8.43;2.20;;;;;;;-144.99;90.83;52403.25;5000601;28;20618;-71
2021/04/08 03:24:16;;;;;;;10.07;2.20;;;;;;;-144.99;90.88;52431.78;5003874;28;20659;-74
2021/04/08 03:26:44;;;;;;;15.90;3.00;;;;;;;-144.99;90.82;52362.50;5007805;28;21012;-74
2021/04/08 03:29:12;;;;;;;13.07;2.53;;;;;;;-144.99;90.58;52395.09;5007650;28;20650;-74
2021/04/08 03:31:41;;;;;;;12.93;2.33;;;;;;;-144.99;90.98;52407.31;5010713;28;20630;-73
2021/04/08 03:34:09;;;;;;;14.90;4.20;;;;;;;-144.99;90.88;52333.94;5010853;28;20971;-73
2021/04/08 03:36:35;;;;;;;9.80;1.93;;;;;;;-144.99;90.66;52386.94;5010293;28;20979;-73
2021/04/08 03:39:02;;;;;;;9.37;3.43;;;;;;;-144.99;90.88;52435.88;5010275;28;20661;-73
2021/04/08 03:41:28;;;;;;;11.03;2.40;;;;;;;-144.99;90.95;52391.03;5011259;28;20625;-73
2021/04/08 03:43:54;;;;;;;17.27;2.57;;;;;;;-144.99;91.21;52407.31;5013829;28;20632;-73
2021/04/08 03:46:21;;;;;;;15.00;3.17;;;;;;;-144.99;91.11;52395.09;5011445;28;20645;-73
2021/04/08 03:48:50;;;;;;;11.97;2.20;;;;;;;-144.99;91.96;52401.22;5011214;28;21296;-71
2021/04/08 03:51:18;;;;;;;10.03;2.00;;;;;;;-144.99;92.50;52386.94;5004352;28;20622;-72
2021/04/08 03:53:45;;;;;;;25.87;4.50;;;;;;;-144.99;92.31;52366.56;5000377;28;20692;-72
2021/04/08 03:56:14;;;;;;;9.47;3.10;;;;;;;-144.99;92.91;52395.09;5005553;28;20649;-72
2021/04/08 03:58:41;;;;;;;10.97;2.57;;;;;;;-144.99;93.41;52382.88;5013041;28;20657;-72
2021/04/08 04:01:07;;;;;;;13.80;2.57;;;;;;;-144.99;92.87;52382.88;5013733;28;20955;-71
2021/04/08 04:03:33;;;;;;;11.03;2.70;;;;;;;-144.99;91.77;52435.88;5012997;28;21211;-72
2021/04/08 04:05:59;;;;;;;5.97;1.90;;;;;;;-144.99;90.70;52427.72;5012047;28;20640;-70
2021/04/08 04:08:26;;;;;;;9.40;1.53;;;;;;;-144.99;88.25;52403.25;5009922;28;20757;-71
2021/04/08 04:10:53;;;;;;;6.80;1.47;;;;;;;-144.99;86.70;52393.06;5013189;28;20210;-74
2021/04/08 04:13:19;;;;;;;3.63;0.77;;;;;;;-144.99;86.02;52382.88;5013519;28;21037;-72
2021/04/08 04:15:48;;;;;;;11.03;1.87;;;;;;;-144.99;85.16;52450.13;5011049;28;20649;-72
2021/04/08 04:18:17;;;;;;;9.80;1.70;;;;;;;-144.99;84.12;52386.94;5008955;28;20663;-71
2021/04/08 04:20:43;;;;;;;148.23;50.03;;;;;;;-144.99;84.77;52378.78;5005639;28;20705;-74
2021/04/08 04:23:09;;;;;;;457.70;123.50;;;;;;;-144.99;84.45;52419.56;4997788;28;20645;-73
2021/04/08 04:25:36;;;;;;;464.23;123.70;;;;;;;-144.99;84.38;52431.78;5012459;28;20617;-74
2021/04/08 04:28:03;;;;;;;465.17;116.63;;;;;;;-144.99;85.19;52403.25;5011735;28;21225;-72
2021/04/08 04:30:29;;;;;;;463.70;120.37;;;;;;;-144.99;86.61;52399.19;5012437;28;20617;-73
2021/04/08 04:32:56;;;;;;;454.20;121.70;;;;;;;-144.99;85.88;52399.19;5012980;28;21190;-72
2021/04/08 04:35:22;;;;;;;372.30;117.10;;;;;;;-144.99;85.78;52391.03;5013570;28;21171;-73
2021/04/08 04:37:48;;;;;;;278.47;105.07;;;;;;;-144.99;84.64;52362.50;5013187;28;20634;-73
2021/04/08 04:40:15;;;;;;;440.07;147.10;;;;;;;-144.99;84.84;52380.84;4994196;28;20638;-76
2021/04/08 04:42:43;;;;;;;451.00;120.90;;;;;;;-144.99;85.45;52425.66;5012544;28;21009;-73
2021/04/08 04:45:11;;;;;;;283.47;112.97;;;;;;;-144.99;85.61;52378.78;5012650;28;21045;-74
2021/04/08 04:47:39;;;;;;;431.77;123.77;;;;;;;-144.99;85.84;52340.06;5011784;28;21027;-73
2021/04/08 04:50:06;;;;;;;431.87;122.73;;;;;;;-144.99;86.65;52413.44;5011700;28;20712;-75
2021/04/08 04:52:32;;;;;;;408.20;123.87;;;;;;;-144.99;87.80;52386.94;5004197;28;20622;-73
2021/04/08 04:54:58;;;;;;;166.10;78.13;;;;;;;-144.99;88.53;52423.63;5006714;28;20668;-74
2021/04/08 04:57:24;;;;;;;229.87;83.63;;;;;;;-144.99;89.04;52378.78;5009081;28;20704;-73
2021/04/08 04:59:51;;;;;;;5.00;1.83;;;;;;;-144.99;89.44;52439.94;5003355;28;20280;-75
2021/04/08 05:02:17;;;;;;;29.33;14.20;;;;;;;-144.99;90.05;52350.25;5012814;28;20217;-73
2021/04/08 05:04:43;;;;;;;34.63;15.90;;;;;;;-144.99;89.48;52411.41;5012086;28;20816;-73
2021/04/08 05:07:09;;;;;;;9.77;1.60;;;;;;;-144.99;89.41;52397.13;5011245;28;21245;-73
2021/04/08 05:09:35;;;;;;;336.67;110.07;;;;;;;-144.99;89.46;52374.72;5009823;28;20234;-73
2021/04/08 05:12:01;;;;;;;434.33;124.00;;;;;;;-144.99;89.54;52439.94;5011469;28;20626;-75
2021/04/08 05:14:27;;;;;;;433.83;125.23;;;;;;;-144.99;89.58;52427.72;5020146;28;20642;-74
2021/04/08 05:16:54;;;;;;;420.03;117.03;;;;;;;-144.99;89.63;52391.03;5019625;28;20665;-74
2021/04/08 05:19:20;;;;;;;454.67;127.53;;;;;;;-144.99;89.76;52362.50;3971762;28;10000733;-73
2021/04/08 05:21:48;;;;;;;459.27;124.53;;;;;;;-144.99;89.86;52386.94;5008298;28;20253;-74
2021/04/08 05:24:17;;;;;;;458.13;121.23;;;;;;;-144.99;90.13;52391.03;5001979;28;20633;-74
2021/04/08 05:26:43;;;;;;;456.95;123.30;;;;;;;-144.99;89.97;52386.94;5008308;28;20645;-74
2021/04/08 05:29:09;;;;;;;462.15;141.00;;;;;;;-144.99;90.04;52411.41;5008806;28;20705;-74
2021/04/08 05:31:35;;;;;;;458.27;134.23;;;;;;;-144.99;89.90;52419.56;5004276;28;20209;-73
2021/04/08 05:34:02;;;;;;;463.17;121.15;;;;;;;-144.99;89.65;52358.41;5010298;28;20625;-75
2021/04/08 05:36:28;;;;;;;472.55;138.18;;;;;;;-144.99;89.57;52374.72;5007988;28;20222;-72
2021/04/08 05:38:54;;;;;;;460.70;130.00;;;;;;;-144.99;89.60;52395.09;5009881;28;20241;-75
2021/04/08 05:41:20;;;;;;;458.98;124.72;;;;;;;-144.99;89.57;52419.56;5008408;28;20207;-73
2021/04/08 05:43:46;;;;;;;454.83;117.18;;;;;;;-144.99;89.72;52407.31;5008864;28;20249;-73
2021/04/08 05:46:12;;;;;;;462.45;124.63;;;;;;;-144.99;89.79;52386.94;5008638;28;20221;-73
2021/04/08 05:48:39;;;;;;;454.83;116.13;;;;;;;-144.99;89.81;52391.03;5006352;28;20238;-73
2021/04/08 05:51:08;;;;;;;461.20;127.30;;;;;;;-144.99;89.81;52393.06;5005257;28;20195;-72
2021/04/08 05:53:34;;;;;;;453.25;118.60;;;;;;;-144.99;89.79;52395.09;5003438;28;20219;-73
2021/04/08 05:56:00;;;;;;;453.60;118.43;;;;;;;-144.99;89.60;52386.94;5000232;28;20219;-73
2021/04/08 05:58:26;;;;;;;459.03;128.50;;;;;;;-144.99;89.18;52374.72;5017869;28;20286;-74
2021/04/08 06:00:52;;;;;;;450.20;124.20;;;;;;;-144.99;88.56;52380.84;5014825;28;20682;-74
2021/04/08 06:03:18;;;;;;;448.88;125.85;;;;;;;-144.99;87.93;52382.88;5009515;28;20203;-74
2021/04/08 06:05:44;;;;;;;450.80;121.75;;;;;;;-144.99;87.48;52382.88;5010663;28;20745;-72
2021/04/08 06:08:11;;;;;;;451.53;120.37;;;;;;;-144.99;87.58;52384.91;5006560;28;20211;-73
2021/04/08 06:10:37;;;;;;;461.13;118.82;;;;;;;-144.99;87.51;52399.19;5006650;28;20221;-72
2021/04/08 06:13:03;;;;;;;461.70;119.35;;;;;;;-144.99;87.41;52415.47;5004076;28;20622;-73
2021/04/08 06:15:30;;;;;;;459.20;120.10;;;;;;;-144.99;87.37;52407.31;5007567;28;20206;-71
2021/04/08 06:17:56;;;;;;;450.83;118.53;;;;;;;-144.99;87.01;52372.69;5007550;28;20720;-74
2021/04/08 06:20:23;;;;;;;454.15;123.68;;;;;;;-144.99;86.36;52417.53;5006608;28;20281;-73
2021/04/08 06:22:50;;;;;;;460.20;119.57;;;;;;;-144.99;85.76;52382.88;5005731;28;20309;-72
2021/04/08 06:25:17;;;;;;;465.30;121.90;;;;;;;-144.99;85.27;52350.25;5009174;28;20203;-72
2021/04/08 06:27:43;;;;;;;470.13;129.07;;;;;;;-144.99;85.03;52366.56;5013036;28;20203;-72
2021/04/08 06:30:10;;;;;;;466.10;133.48;;;;;;;-144.99;84.86;52370.63;5005431;28;20218;-72
2021/04/08 06:32:37;;;;;;;469.52;124.78;;;;;;;-144.99;84.95;52374.72;5003338;28;20258;-72
2021/04/08 06:35:03;;;;;;;478.15;133.90;;;;;;;-144.99;84.14;52386.94;5008201;28;20289;-73
2021/04/08 06:37:29;;;;;;;479.90;127.07;;;;;;;-144.99;83.33;52358.41;5007320;28;20229;-72
2021/04/08 06:39:55;;;;;;;477.07;129.30;;;;;;;-144.99;83.15;52382.88;5005587;28;20230;-72
2021/04/08 06:42:23;;;;;;;471.37;130.40;;;;;;;-144.99;82.90;52376.75;5006506;28;21000;-72
2021/04/08 06:44:51;;;;;;;527.50;178.77;;;;;;;-144.99;82.95;52346.19;5006199;28;20735;-73
2021/04/08 06:47:23;;;;;;;493.77;141.57;;;;;;;-144.99;82.46;52378.78;5006945;28;20270;-74
2021/04/08 06:49:54;;;;;;;492.67;137.10;;;;;;;-144.99;82.23;52352.28;5008140;28;20650;-71
2021/04/08 06:52:22;;;;;;;476.50;129.38;;;;;;;-144.99;81.81;52391.03;5005161;28;20630;-71
2021/04/08 06:54:49;;;;;;;476.40;137.52;;;;;;;-144.99;81.44;52407.31;5005192;28;20680;-71
2021/04/08 06:57:18;;;;;;;469.23;127.22;;;;;;;-144.99;80.46;52333.94;5006944;28;20290;-72
2021/04/08 06:59:45;;;;;;;468.47;132.23;;;;;;;-144.99;79.67;52342.09;5006375;28;20241;-71
2021/04/08 07:02:14;;;;;;;476.47;129.63;;;;;;;-144.99;79.83;52370.63;5007876;28;20618;-73
2021/04/08 07:04:40;;;;;;;479.00;136.73;;;;;;;-144.99;81.76;52409.38;4997265;28;20702;-73
2021/04/08 07:07:06;;;;;;;467.92;136.00;;;;;;;-144.99;82.82;52370.63;5006076;28;21016;-73
2021/04/08 07:09:32;;;;;;;468.83;135.05;;;;;;;-144.99;84.31;52376.75;5006300;28;20640;-73
2021/04/08 07:11:59;;;;;;;455.92;128.30;;;;;;;-144.99;84.49;52384.91;5002664;28;20215;-73
2021/04/08 07:14:26;;;;;;;459.88;133.40;;;;;;;-144.99;84.71;52370.63;5007180;28;20256;-72
2021/04/08 07:16:54;;;;;;;463.40;135.70;;;;;;;-144.99;84.66;52360.44;5010485;28;20218;-72
2021/04/08 07:19:21;;;;;;;455.83;130.73;;;;;;;-144.99;84.87;52350.25;5012430;28;20219;-73
2021/04/08 07:21:47;;;;;;;437.42;114.65;;;;;;;-144.99;84.29;52378.78;5007488;28;20224;-71
2021/04/08 07:26:56;;;;;;;449.90;122.00;;;;;;;-144.99;82.38;52366.56;5041471;28;20221;-73
2021/04/08 07:29:44;;;;;;;445.33;121.53;;;;;;;-144.99;81.03;52333.94;5035215;28;20293;-72
2021/04/08 07:32:13;;;;;;;439.42;118.13;;;;;;;-144.99;81.20;52346.19;5049908;28;20201;-72
2021/04/08 07:34:42;;;;;;;439.10;117.95;;;;;;;-144.99;81.86;52346.19;5037782;28;20218;-73
2021/04/08 07:37:08;;;;;;;442.52;128.75;;;;;;;-144.99;82.27;52358.41;5030425;28;20226;-72
2021/04/08 07:39:36;;;;;;;441.38;115.65;;;;;;;-144.99;81.84;52350.25;5031180;28;20476;-71
2021/04/08 07:42:05;;;;;;;436.98;119.32;;;;;;;-144.99;82.03;52362.50;5028654;28;20194;-72
2021/04/08 07:44:42;;;;;;;434.88;119.07;;;;;;;-144.99;82.22;52325.81;5030300;28;20268;-73
2021/04/08 07:47:19;;;;;;;442.17;121.70;;;;;;;-144.99;81.62;52338.03;5029869;28;20212;-74
2021/04/08 07:49:46;;;;;;;442.17;113.22;;;;;;;-144.99;80.96;52368.59;5029288;28;20693;-72
2021/04/08 07:52:26;;;;;;;435.90;114.07;;;;;;;-144.99;80.70;52358.41;5017910;28;20195;-73
2021/04/08 07:54:58;;;;;;;437.00;115.10;;;;;;;-144.99;81.66;52338.03;5019325;28;20225;-75
2021/04/08 07:57:24;;;;;;;432.70;117.00;;;;;;;-144.99;81.38;52329.88;5028303;28;20240;-74
2021/04/08 07:59:51;;;;;;;430.83;123.75;;;;;;;-144.99;82.46;52370.63;5028236;28;20701;-73
2021/04/08 08:02:23;;;;;;;421.75;117.88;;;;;;;-144.99;83.25;52338.03;5030088;28;20285;-73
2021/04/08 08:04:49;;;;;;;438.10;119.20;;;;;;;-144.99;85.35;52397.13;5026564;28;20226;-74
2021/04/08 08:07:26;;;;;;;447.02;125.95;;;;;;;-144.99;88.36;52352.28;5030065;28;20203;-73
2021/04/08 08:09:53;;;;;;;446.33;137.65;;;;;;;-144.99;90.26;52356.38;5028242;28;20224;-72
2021/04/08 08:12:19;;;;;;;448.83;139.77;;;;;;;-144.99;90.86;52374.72;5027822;28;20268;-72
2021/04/08 08:14:45;;;;;;;455.98;144.48;;;;;;;-144.99;91.28;52370.63;5028185;28;20218;-73
2021/04/08 08:17:13;;;;;;;458.60;134.90;;;;;;;-144.99;90.53;52350.25;5024064;28;20226;-70
2021/04/08 08:19:42;;;;;;;451.67;140.40;;;;;;;-144.99;90.30;52401.22;5028000;28;20206;-72
2021/04/08 08:22:09;;;;;;;449.73;116.25;;;;;;;-144.99;89.87;52362.50;5021028;28;20211;-75
2021/04/08 08:24:35;;;;;;;452.92;123.53;;;;;;;-144.99;89.86;52354.34;5029158;28;20230;-70
2021/04/08 08:27:01;;;;;;;462.85;140.13;;;;;;;-144.99;89.51;52348.22;5032345;28;20302;-72
2021/04/08 08:29:29;;;;;;;458.83;142.43;;;;;;;-144.99;89.23;52348.22;5032740;28;20210;-74
2021/04/08 08:31:58;;;;;;;467.77;162.57;;;;;;;-144.99;89.02;52350.25;5026885;28;20637;-72
2021/04/08 08:34:26;;;;;;;463.30;144.25;;;;;;;-144.99;88.83;52376.75;5029314;28;20202;-74
2021/04/08 08:36:55;;;;;;;456.30;136.02;;;;;;;-144.99;87.57;52333.94;5029976;28;20224;-74
2021/04/08 08:39:23;;;;;;;469.58;156.90;;;;;;;-144.99;86.47;52305.41;5029504;28;20443;-73
2021/04/08 08:41:49;;;;;;;469.45;158.57;;;;;;;-144.99;83.24;52336.00;5027816;28;20210;-74
2021/04/08 08:44:17;;;;;;;478.95;156.95;;;;;;;-144.99;82.86;52358.41;5029019;28;20276;-74
2021/04/08 08:46:47;;;;;;;468.40;172.68;;;;;;;-144.99;80.84;52342.09;5029183;28;20204;-74
2021/04/08 08:49:18;;;;;;;465.85;163.10;;;;;;;-144.99;81.66;52289.13;5029527;28;20215;-73
2021/04/08 08:51:47;;;;;;;461.13;148.77;;;;;;;-144.99;80.77;52317.66;5023540;28;20230;-73
2021/04/08 08:54:13;;;;;;;461.85;150.82;;;;;;;-144.99;80.68;52338.03;5025987;28;20239;-73
2021/04/08 08:56:41;;;;;;;454.10;144.05;;;;;;;-144.99;80.56;52305.41;5025145;28;20676;-73
2021/04/08 08:59:07;;;;;;;454.33;147.15;;;;;;;-144.99;79.76;52352.28;5029488;28;20221;-72
2021/04/08 09:01:35;;;;;;;451.48;143.38;;;;;;;-144.99;79.84;52370.63;5027562;28;20616;-74
2021/04/08 09:04:02;;;;;;;440.92;140.95;;;;;;;-144.99;78.63;52362.50;5027447;28;20731;-74
2021/04/08 09:06:29;;;;;;;429.80;142.00;;;;;;;-144.99;79.46;52395.09;5021260;28;20234;-71
2021/04/08 09:09:01;;;;;;;435.88;128.77;;;;;;;-144.99;79.59;52352.28;5029685;28;20210;-74
2021/04/08 09:11:31;;;;;;;431.55;127.15;;;;;;;-144.99;79.62;52342.09;5027058;28;20249;-71
2021/04/08 09:13:59;;;;;;;428.40;121.55;;;;;;;-144.99;79.06;52358.41;5025560;28;20649;-76
2021/04/08 09:16:25;;;;;;;393.35;117.32;;;;;;;-144.99;78.10;52342.09;5027688;28;21019;-75
2021/04/08 09:19:03;;;;;;;422.65;118.75;;;;;;;-144.99;77.61;52354.34;5028376;28;20229;-76
2021/04/08 09:21:43;;;;;;;419.25;115.25;;;;;;;-144.99;77.48;52362.50;5012352;28;20285;-74
2021/04/08 09:24:15;;;;;;;417.85;117.45;;;;;;;-144.99;77.83;52356.38;5024596;28;20207;-73
2021/04/08 09:26:44;;;;;;;395.55;107.40;;;;;;;-144.99;77.71;52338.03;5028275;28;20567;-72
2021/04/08 09:29:12;;;;;;;360.40;109.72;;;;;;;-144.99;78.95;52370.63;5029199;28;20232;-71
2021/04/08 09:31:38;;;;;;;299.17;103.63;;;;;;;-144.99;78.61;52366.56;5028097;28;20492;-74
2021/04/08 09:34:05;;;;;;;346.30;101.90;;;;;;;-144.99;78.29;52354.34;5027424;28;20202;-72
2021/04/08 09:36:41;;;;;;;376.30;100.53;;;;;;;-144.99;78.14;52350.25;5028537;28;20280;-73
2021/04/08 09:39:27;;;;;;;308.80;102.32;;;;;;;-144.99;77.56;52338.03;5029707;28;20259;-75
2021/04/08 09:41:58;;;;;;;311.02;110.95;;;;;;;-144.99;80.85;52370.63;5028754;28;20206;-72
2021/04/08 09:44:27;;;;;;;286.23;108.30;;;;;;;-144.99;83.85;52411.41;5027028;28;20309;-73
2021/04/08 09:46:55;;;;;;;323.67;129.85;;;;;;;-144.99;84.22;52370.63;5024645;28;20202;-73
2021/04/08 09:49:46;;;;;;;326.60;120.88;;;;;;;-144.99;84.63;52372.69;5028794;28;20639;-74
2021/04/08 09:52:14;;;;;;;340.65;111.97;;;;;;;-144.99;85.40;52352.28;5026666;28;20202;-74
2021/04/08 09:54:41;;;;;;;335.98;119.45;;;;;;;-144.99;84.84;52372.69;5024279;28;20223;-73
2021/04/08 09:57:09;;;;;;;357.63;118.10;;;;;;;-144.99;84.29;52395.09;5028160;28;20222;-76
2021/04/08 09:59:54;;;;;;;360.80;122.45;;;;;;;-144.99;82.83;52321.72;5029270;28;20753;-72
2021/04/08 10:02:21;;;;;;;375.23;133.93;;;;;;;-144.99;82.36;52344.16;5027047;28;20213;-77
2021/04/08 10:05:01;;;;;;;378.58;138.88;;;;;;;-144.99;81.30;52297.25;5028940;28;20229;-74
2021/04/08 10:07:27;;;;;;;369.83;134.85;;;;;;;-144.99;80.17;52321.72;5017024;28;20217;-72
2021/04/08 10:09:55;;;;;;;364.55;143.35;;;;;;;-144.99;79.49;52315.59;5028956;28;20216;-75
2021/04/08 10:12:30;;;;;;;363.35;126.13;;;;;;;-144.99;78.75;52297.25;5027085;28;20256;-75
2021/04/08 10:14:56;;;;;;;377.20;131.45;;;;;;;-144.99;76.64;52325.81;5028110;28;20234;-73
2021/04/08 10:17:33;;;;;;;376.98;119.03;;;;;;;-144.99;72.76;52297.25;5021432;28;20217;-73
2021/04/08 10:19:59;;;;;;;349.50;104.38;;;;;;;-144.99;69.64;52272.81;5025363;28;20496;-74
2021/04/08 10:22:26;;;;;;;364.37;105.80;;;;;;;-144.99;69.78;52276.88;5015753;28;20336;-72
2021/04/08 10:24:52;;;;;;;306.95;126.38;;;;;;;-144.99;69.67;52293.19;5022571;28;20656;-71
2021/04/08 10:27:22;;;;;;;330.23;106.10;;;;;;;-144.99;69.04;52336.00;5026862;28;20618;-74
2021/04/08 10:29:49;;;;;;;356.60;100.90;;;;;;;-144.99;67.47;52338.03;5027014;28;20514;-75
2021/04/08 10:32:29;;;;;;;321.85;99.28;;;;;;;-144.99;71.12;52354.34;5027718;28;20659;-72
2021/04/08 10:34:55;;;;;;;312.00;96.50;;;;;;;-144.99;72.10;52382.88;5027463;28;20229;-72
2021/04/08 10:37:22;;;;;;;308.08;94.82;;;;;;;-144.99;74.02;52366.56;5027749;28;20677;-74
2021/04/08 10:39:48;;;;;;;351.65;94.82;;;;;;;-144.99;77.19;52386.94;5027731;28;20630;-74
2021/04/08 10:42:15;;;;;;;386.95;101.70;;;;;;;-144.99;78.77;52358.41;5027469;28;20718;-72
2021/04/08 10:44:43;;;;;;;376.67;102.13;;;;;;;-144.99;80.92;52309.50;5025095;28;20226;-76
2021/04/08 10:47:12;;;;;;;381.48;98.13;;;;;;;-144.99;78.09;52313.56;5026215;28;20203;-73
2021/04/08 10:49:42;;;;;;;376.80;96.65;;;;;;;-144.99;73.77;52333.94;5028385;28;20214;-71
2021/04/08 10:52:10;;;;;;;369.73;104.00;;;;;;;-144.99;73.07;52338.03;5025251;28;20579;-73
2021/04/08 10:54:42;;;;;;;318.60;106.40;;;;;;;-144.99;71.49;52321.72;5018193;28;20213;-74
2021/04/08 10:57:09;;;;;;;262.30;102.05;;;;;;;-144.99;69.13;52309.50;5025962;28;20712;-73
2021/04/08 10:59:39;;;;;;;286.95;92.70;;;;;;;-144.99;66.18;52142.38;5026824;28;20668;-72
2021/04/08 11:02:21;;;;;;;293.98;96.38;;;;;;;-144.99;64.42;52317.66;5026968;28;20681;-77
2021/04/08 11:04:47;;;;;;;404.70;108.40;;;;;;;-144.99;64.01;52338.03;5027671;28;20748;-71